sensor_id;sensor_type;location;lat;lon;timestamp;pressure;altitude;pressure_sealevel;temperature;humidity
53246;BME280;39569;51.090;-1.786;2023-05-19T00:01:12;102039.47;;;23.26;40.01
53246;BME280;39569;51.090;-1.786;2023-05-19T00:03:49;102034.13;;;23.37;39.90
53246;BME280;39569;51.090;-1.786;2023-05-19T00:06:21;102032.16;;;23.45;39.68
53246;BME280;39569;51.090;-1.786;2023-05-19T00:08:53;102034.78;;;23.51;39.60
53246;BME280;39569;51.090;-1.786;2023-05-19T00:11:22;102036.94;;;23.49;39.12
53246;BME280;39569;51.090;-1.786;2023-05-19T00:13:50;102036.84;;;23.37;39.57
53246;BME280;39569;51.090;-1.786;2023-05-19T00:16:18;102036.03;;;23.37;39.58
53246;BME280;39569;51.090;-1.786;2023-05-19T00:18:45;102031.03;;;23.34;39.62
53246;BME280;39569;51.090;-1.786;2023-05-19T00:21:13;102030.56;;;23.37;39.82
53246;BME280;39569;51.090;-1.786;2023-05-19T00:23:40;102031.16;;;23.39;39.76
53246;BME280;39569;51.090;-1.786;2023-05-19T00:26:08;102031.53;;;23.42;39.59
53246;BME280;39569;51.090;-1.786;2023-05-19T00:28:35;102031.78;;;23.16;39.71
53246;BME280;39569;51.090;-1.786;2023-05-19T00:31:03;102028.84;;;23.18;40.23
53246;BME280;39569;51.090;-1.786;2023-05-19T00:33:30;102034.63;;;23.28;40.19
53246;BME280;39569;51.090;-1.786;2023-05-19T00:35:58;102034.50;;;23.41;40.20
53246;BME280;39569;51.090;-1.786;2023-05-19T00:38:27;102033.44;;;22.99;40.32
53246;BME280;39569;51.090;-1.786;2023-05-19T00:40:54;102032.97;;;23.27;40.11
53246;BME280;39569;51.090;-1.786;2023-05-19T00:43:22;102036.03;;;23.37;40.22
53246;BME280;39569;51.090;-1.786;2023-05-19T00:45:49;102032.72;;;23.28;40.27
53246;BME280;39569;51.090;-1.786;2023-05-19T00:48:16;102036.72;;;23.32;40.21
53246;BME280;39569;51.090;-1.786;2023-05-19T00:50:43;102028.53;;;23.32;40.40
53246;BME280;39569;51.090;-1.786;2023-05-19T00:53:10;102031.47;;;23.31;40.00
53246;BME280;39569;51.090;-1.786;2023-05-19T00:55:38;102015.94;;;23.31;40.22
53246;BME280;39569;51.090;-1.786;2023-05-19T00:58:08;102026.66;;;23.26;40.26
53246;BME280;39569;51.090;-1.786;2023-05-19T01:00:37;102030.44;;;23.25;40.26
53246;BME280;39569;51.090;-1.786;2023-05-19T01:03:05;102028.41;;;23.21;40.84
53246;BME280;39569;51.090;-1.786;2023-05-19T01:05:36;102021.06;;;23.21;41.00
53246;BME280;39569;51.090;-1.786;2023-05-19T01:08:04;102021.28;;;23.20;40.83
53246;BME280;39569;51.090;-1.786;2023-05-19T01:10:31;102018.78;;;23.18;40.99
53246;BME280;39569;51.090;-1.786;2023-05-19T01:12:57;102016.13;;;23.12;40.92
53246;BME280;39569;51.090;-1.786;2023-05-19T01:15:25;102029.38;;;23.08;40.91
53246;BME280;39569;51.090;-1.786;2023-05-19T01:17:59;102026.84;;;23.07;40.94
53246;BME280;39569;51.090;-1.786;2023-05-19T01:20:34;102028.59;;;23.01;41.17
53246;BME280;39569;51.090;-1.786;2023-05-19T01:23:22;102038.69;;;23.01;41.14
53246;BME280;39569;51.090;-1.786;2023-05-19T01:26:15;102025.44;;;23.04;41.90
53246;BME280;39569;51.090;-1.786;2023-05-19T01:31:49;102029.66;;;23.00;41.73
53246;BME280;39569;51.090;-1.786;2023-05-19T01:34:17;102027.16;;;22.99;42.18
53246;BME280;39569;51.090;-1.786;2023-05-19T01:36:46;102027.16;;;22.99;42.13
53246;BME280;39569;51.090;-1.786;2023-05-19T01:39:14;102019.13;;;23.04;42.20
53246;BME280;39569;51.090;-1.786;2023-05-19T01:41:43;102021.09;;;22.97;42.39
53246;BME280;39569;51.090;-1.786;2023-05-19T01:44:11;102019.66;;;22.94;42.30
53246;BME280;39569;51.090;-1.786;2023-05-19T01:46:38;102028.44;;;22.96;42.45
53246;BME280;39569;51.090;-1.786;2023-05-19T01:49:08;102020.25;;;22.96;42.31
53246;BME280;39569;51.090;-1.786;2023-05-19T01:51:35;102019.66;;;22.94;42.32
53246;BME280;39569;51.090;-1.786;2023-05-19T01:54:02;102015.50;;;22.92;42.56
53246;BME280;39569;51.090;-1.786;2023-05-19T01:56:34;102014.44;;;22.93;42.70
53246;BME280;39569;51.090;-1.786;2023-05-19T01:59:10;102021.75;;;22.92;42.59
53246;BME280;39569;51.090;-1.786;2023-05-19T02:01:48;102013.28;;;22.82;42.66
53246;BME280;39569;51.090;-1.786;2023-05-19T02:04:25;102015.94;;;22.89;42.53
53246;BME280;39569;51.090;-1.786;2023-05-19T02:07:00;102015.09;;;22.88;42.41
53246;BME280;39569;51.090;-1.786;2023-05-19T02:09:36;102017.16;;;22.93;42.91
53246;BME280;39569;51.090;-1.786;2023-05-19T02:12:10;102012.97;;;22.90;43.28
53246;BME280;39569;51.090;-1.786;2023-05-19T02:14:39;102003.13;;;22.89;43.08
53246;BME280;39569;51.090;-1.786;2023-05-19T02:17:07;102003.97;;;22.90;42.61
53246;BME280;39569;51.090;-1.786;2023-05-19T02:19:38;102009.88;;;22.87;43.04
53246;BME280;39569;51.090;-1.786;2023-05-19T02:22:04;101995.97;;;22.95;43.23
53246;BME280;39569;51.090;-1.786;2023-05-19T02:24:31;101994.34;;;22.87;43.00
53246;BME280;39569;51.090;-1.786;2023-05-19T02:26:58;102005.47;;;22.86;43.53
53246;BME280;39569;51.090;-1.786;2023-05-19T02:29:25;102007.75;;;22.89;43.50
53246;BME280;39569;51.090;-1.786;2023-05-19T02:31:52;101996.25;;;22.87;43.65
53246;BME280;39569;51.090;-1.786;2023-05-19T02:34:19;101994.63;;;22.79;43.58
53246;BME280;39569;51.090;-1.786;2023-05-19T02:36:47;101995.25;;;22.81;43.71
53246;BME280;39569;51.090;-1.786;2023-05-19T02:39:15;102006.59;;;22.78;43.90
53246;BME280;39569;51.090;-1.786;2023-05-19T02:41:41;102003.50;;;22.75;44.40
53246;BME280;39569;51.090;-1.786;2023-05-19T02:44:08;102011.59;;;22.81;44.43
53246;BME280;39569;51.090;-1.786;2023-05-19T02:46:35;102019.59;;;22.76;44.33
53246;BME280;39569;51.090;-1.786;2023-05-19T02:49:02;102016.88;;;22.76;44.26
53246;BME280;39569;51.090;-1.786;2023-05-19T02:51:28;102016.13;;;22.69;44.42
53246;BME280;39569;51.090;-1.786;2023-05-19T02:53:57;102013.16;;;22.71;44.10
53246;BME280;39569;51.090;-1.786;2023-05-19T02:56:23;102018.59;;;22.71;43.91
53246;BME280;39569;51.090;-1.786;2023-05-19T02:58:50;102007.75;;;22.64;44.18
53246;BME280;39569;51.090;-1.786;2023-05-19T03:01:17;102018.94;;;22.56;44.02
53246;BME280;39569;51.090;-1.786;2023-05-19T03:03:45;102017.28;;;22.48;44.49
53246;BME280;39569;51.090;-1.786;2023-05-19T03:06:12;102021.13;;;22.41;44.50
53246;BME280;39569;51.090;-1.786;2023-05-19T03:08:40;102019.00;;;22.43;44.23
53246;BME280;39569;51.090;-1.786;2023-05-19T03:11:08;102006.84;;;22.45;44.70
53246;BME280;39569;51.090;-1.786;2023-05-19T03:13:35;102015.66;;;22.41;44.41
53246;BME280;39569;51.090;-1.786;2023-05-19T03:16:01;102007.94;;;22.38;44.35
53246;BME280;39569;51.090;-1.786;2023-05-19T03:18:28;102012.97;;;22.34;44.13
53246;BME280;39569;51.090;-1.786;2023-05-19T03:20:55;102008.22;;;22.30;44.51
53246;BME280;39569;51.090;-1.786;2023-05-19T03:23:22;101998.16;;;22.30;44.41
53246;BME280;39569;51.090;-1.786;2023-05-19T03:25:49;102002.53;;;22.31;44.14
53246;BME280;39569;51.090;-1.786;2023-05-19T03:28:17;101998.97;;;22.31;44.46
53246;BME280;39569;51.090;-1.786;2023-05-19T03:30:44;102007.81;;;22.26;44.19
53246;BME280;39569;51.090;-1.786;2023-05-19T03:33:10;102002.63;;;22.18;44.79
53246;BME280;39569;51.090;-1.786;2023-05-19T03:35:37;102002.22;;;22.15;44.52
53246;BME280;39569;51.090;-1.786;2023-05-19T03:38:04;102006.66;;;22.16;44.79
53246;BME280;39569;51.090;-1.786;2023-05-19T03:40:31;102011.66;;;22.12;44.30
53246;BME280;39569;51.090;-1.786;2023-05-19T03:42:57;102012.28;;;22.14;44.35
53246;BME280;39569;51.090;-1.786;2023-05-19T03:45:26;102011.81;;;22.24;44.83
53246;BME280;39569;51.090;-1.786;2023-05-19T03:47:54;102017.69;;;22.21;44.48
53246;BME280;39569;51.090;-1.786;2023-05-19T03:50:21;102005.34;;;22.18;44.54
53246;BME280;39569;51.090;-1.786;2023-05-19T03:52:48;102006.13;;;22.25;44.41
53246;BME280;39569;51.090;-1.786;2023-05-19T03:55:15;102004.09;;;22.21;45.03
53246;BME280;39569;51.090;-1.786;2023-05-19T03:57:44;102009.78;;;22.13;45.18
53246;BME280;39569;51.090;-1.786;2023-05-19T04:00:12;102001.59;;;22.19;44.49
53246;BME280;39569;51.090;-1.786;2023-05-19T04:02:40;101995.84;;;22.27;44.82
53246;BME280;39569;51.090;-1.786;2023-05-19T04:05:07;101989.69;;;22.14;44.76
53246;BME280;39569;51.090;-1.786;2023-05-19T04:07:34;101993.63;;;22.18;44.44
53246;BME280;39569;51.090;-1.786;2023-05-19T04:10:02;101988.78;;;22.20;44.92
53246;BME280;39569;51.090;-1.786;2023-05-19T04:12:30;101991.56;;;22.13;44.97
53246;BME280;39569;51.090;-1.786;2023-05-19T04:14:57;101999.75;;;22.13;44.33
53246;BME280;39569;51.090;-1.786;2023-05-19T04:17:24;101991.34;;;22.15;44.51
53246;BME280;39569;51.090;-1.786;2023-05-19T04:19:53;101989.03;;;22.18;44.70
53246;BME280;39569;51.090;-1.786;2023-05-19T04:22:19;101992.59;;;22.12;44.54
53246;BME280;39569;51.090;-1.786;2023-05-19T04:24:46;101986.59;;;22.04;45.07
53246;BME280;39569;51.090;-1.786;2023-05-19T04:27:14;101984.50;;;22.06;44.61
53246;BME280;39569;51.090;-1.786;2023-05-19T04:29:42;101987.75;;;22.21;44.97
53246;BME280;39569;51.090;-1.786;2023-05-19T04:32:10;101991.34;;;22.15;44.71
53246;BME280;39569;51.090;-1.786;2023-05-19T04:34:42;101983.44;;;22.07;44.41
53246;BME280;39569;51.090;-1.786;2023-05-19T04:37:11;101987.38;;;22.11;44.85
53246;BME280;39569;51.090;-1.786;2023-05-19T04:39:38;101983.19;;;22.15;44.80
53246;BME280;39569;51.090;-1.786;2023-05-19T04:42:07;101990.25;;;22.22;44.66
53246;BME280;39569;51.090;-1.786;2023-05-19T04:44:34;101980.63;;;22.20;44.38
53246;BME280;39569;51.090;-1.786;2023-05-19T04:47:02;101993.81;;;22.23;44.34
53246;BME280;39569;51.090;-1.786;2023-05-19T04:49:30;101993.59;;;22.24;44.64
53246;BME280;39569;51.090;-1.786;2023-05-19T04:51:57;101992.72;;;22.30;44.47
53246;BME280;39569;51.090;-1.786;2023-05-19T04:54:25;102003.16;;;22.33;44.91
53246;BME280;39569;51.090;-1.786;2023-05-19T04:56:52;101995.59;;;22.35;44.65
53246;BME280;39569;51.090;-1.786;2023-05-19T04:59:18;101987.78;;;22.45;44.70
53246;BME280;39569;51.090;-1.786;2023-05-19T05:01:45;101990.50;;;22.45;44.36
53246;BME280;39569;51.090;-1.786;2023-05-19T05:04:12;101993.16;;;22.52;44.41
53246;BME280;39569;51.090;-1.786;2023-05-19T05:06:39;101998.06;;;22.43;44.49
53246;BME280;39569;51.090;-1.786;2023-05-19T05:09:06;101999.22;;;22.54;44.23
53246;BME280;39569;51.090;-1.786;2023-05-19T05:11:36;102002.53;;;22.63;44.66
53246;BME280;39569;51.090;-1.786;2023-05-19T05:14:03;102001.66;;;22.69;44.26
53246;BME280;39569;51.090;-1.786;2023-05-19T05:16:31;102016.28;;;22.74;44.09
53246;BME280;39569;51.090;-1.786;2023-05-19T05:18:59;102024.78;;;22.84;44.25
53246;BME280;39569;51.090;-1.786;2023-05-19T05:21:26;102030.50;;;22.76;44.67
53246;BME280;39569;51.090;-1.786;2023-05-19T05:23:54;102036.88;;;22.88;44.14
53246;BME280;39569;51.090;-1.786;2023-05-19T05:26:21;102039.56;;;22.95;44.21
53246;BME280;39569;51.090;-1.786;2023-05-19T05:28:50;102038.78;;;22.88;44.28
53246;BME280;39569;51.090;-1.786;2023-05-19T05:31:16;102035.84;;;22.89;44.35
53246;BME280;39569;51.090;-1.786;2023-05-19T05:33:43;102031.16;;;22.96;44.33
53246;BME280;39569;51.090;-1.786;2023-05-19T05:36:10;102023.09;;;22.83;44.46
53246;BME280;39569;51.090;-1.786;2023-05-19T05:38:38;102018.66;;;22.89;44.30
53246;BME280;39569;51.090;-1.786;2023-05-19T05:41:04;102012.34;;;22.88;44.54
53246;BME280;39569;51.090;-1.786;2023-05-19T05:43:31;102007.63;;;23.02;44.32
53246;BME280;39569;51.090;-1.786;2023-05-19T05:45:59;101992.13;;;23.20;43.85
53246;BME280;39569;51.090;-1.786;2023-05-19T05:48:26;101995.19;;;23.30;43.83
53246;BME280;39569;51.090;-1.786;2023-05-19T05:50:55;101995.63;;;23.46;43.53
53246;BME280;39569;51.090;-1.786;2023-05-19T05:53:24;101994.88;;;23.57;43.45
53246;BME280;39569;51.090;-1.786;2023-05-19T05:55:51;101990.63;;;23.61;43.46
53246;BME280;39569;51.090;-1.786;2023-05-19T05:58:18;101988.97;;;23.60;43.03
53246;BME280;39569;51.090;-1.786;2023-05-19T06:00:45;101987.81;;;23.67;43.14
53246;BME280;39569;51.090;-1.786;2023-05-19T06:03:14;101996.06;;;23.79;42.88
53246;BME280;39569;51.090;-1.786;2023-05-19T06:05:42;102003.59;;;23.95;42.74
53246;BME280;39569;51.090;-1.786;2023-05-19T06:08:08;102000.75;;;23.72;42.76
53246;BME280;39569;51.090;-1.786;2023-05-19T06:10:35;101996.69;;;23.92;43.06
53246;BME280;39569;51.090;-1.786;2023-05-19T06:13:03;102003.22;;;24.09;42.36
53246;BME280;39569;51.090;-1.786;2023-05-19T06:15:29;102001.44;;;24.15;42.35
53246;BME280;39569;51.090;-1.786;2023-05-19T06:17:56;101995.75;;;24.16;42.45
53246;BME280;39569;51.090;-1.786;2023-05-19T06:20:24;101988.09;;;24.48;41.87
53246;BME280;39569;51.090;-1.786;2023-05-19T06:22:51;101981.34;;;24.62;41.65
53246;BME280;39569;51.090;-1.786;2023-05-19T06:25:18;101983.59;;;24.54;41.74
53246;BME280;39569;51.090;-1.786;2023-05-19T06:27:45;101992.16;;;24.57;41.48
53246;BME280;39569;51.090;-1.786;2023-05-19T06:30:12;102002.16;;;24.63;41.43
53246;BME280;39569;51.090;-1.786;2023-05-19T06:32:39;102000.47;;;24.51;41.71
53246;BME280;39569;51.090;-1.786;2023-05-19T06:35:07;102000.31;;;24.46;42.00
53246;BME280;39569;51.090;-1.786;2023-05-19T06:37:35;101999.13;;;24.71;41.33
53246;BME280;39569;51.090;-1.786;2023-05-19T06:40:02;102003.78;;;24.41;41.10
53246;BME280;39569;51.090;-1.786;2023-05-19T06:42:29;102008.72;;;24.74;41.14
53246;BME280;39569;51.090;-1.786;2023-05-19T06:44:56;102009.97;;;24.48;41.62
53246;BME280;39569;51.090;-1.786;2023-05-19T06:47:23;102020.25;;;24.23;42.25
53246;BME280;39569;51.090;-1.786;2023-05-19T06:49:50;102019.13;;;24.54;41.43
53246;BME280;39569;51.090;-1.786;2023-05-19T06:52:19;102019.81;;;24.79;40.76
53246;BME280;39569;51.090;-1.786;2023-05-19T06:54:47;102021.22;;;25.04;40.71
53246;BME280;39569;51.090;-1.786;2023-05-19T06:57:14;102021.06;;;25.46;40.24
53246;BME280;39569;51.090;-1.786;2023-05-19T06:59:41;102010.94;;;25.58;40.01
53246;BME280;39569;51.090;-1.786;2023-05-19T07:02:10;102012.00;;;25.57;40.11
53246;BME280;39569;51.090;-1.786;2023-05-19T07:04:37;102018.84;;;24.96;41.40
53246;BME280;39569;51.090;-1.786;2023-05-19T07:07:05;102020.25;;;25.10;40.85
53246;BME280;39569;51.090;-1.786;2023-05-19T07:09:32;102010.94;;;25.58;40.69
53246;BME280;39569;51.090;-1.786;2023-05-19T07:12:00;102001.28;;;25.67;40.43
53246;BME280;39569;51.090;-1.786;2023-05-19T07:14:27;102005.44;;;25.69;39.97
53246;BME280;39569;51.090;-1.786;2023-05-19T07:16:54;102008.06;;;25.64;39.90
53246;BME280;39569;51.090;-1.786;2023-05-19T07:19:20;102007.69;;;25.72;40.18
53246;BME280;39569;51.090;-1.786;2023-05-19T07:21:48;102013.91;;;25.96;39.96
53246;BME280;39569;51.090;-1.786;2023-05-19T07:24:15;102008.19;;;26.25;39.54
53246;BME280;39569;51.090;-1.786;2023-05-19T07:26:41;101991.63;;;26.49;38.48
53246;BME280;39569;51.090;-1.786;2023-05-19T07:29:10;102007.19;;;26.15;38.63
53246;BME280;39569;51.090;-1.786;2023-05-19T07:31:36;101995.72;;;25.90;39.72
53246;BME280;39569;51.090;-1.786;2023-05-19T07:34:03;101995.81;;;25.95;38.95
53246;BME280;39569;51.090;-1.786;2023-05-19T07:36:30;102001.75;;;25.92;40.06
53246;BME280;39569;51.090;-1.786;2023-05-19T07:38:57;102002.22;;;26.12;39.34
53246;BME280;39569;51.090;-1.786;2023-05-19T07:41:23;102000.19;;;26.07;39.82
53246;BME280;39569;51.090;-1.786;2023-05-19T07:43:50;102010.13;;;26.25;38.94
53246;BME280;39569;51.090;-1.786;2023-05-19T07:46:19;102012.31;;;26.56;38.75
53246;BME280;39569;51.090;-1.786;2023-05-19T07:48:46;102013.06;;;26.85;38.58
53246;BME280;39569;51.090;-1.786;2023-05-19T07:51:13;102019.69;;;27.05;38.49
53246;BME280;39569;51.090;-1.786;2023-05-19T07:53:40;102008.69;;;26.84;37.98
53246;BME280;39569;51.090;-1.786;2023-05-19T07:56:07;102015.16;;;27.33;37.07
53246;BME280;39569;51.090;-1.786;2023-05-19T07:58:34;102007.28;;;27.36;36.53
53246;BME280;39569;51.090;-1.786;2023-05-19T08:01:00;102013.09;;;27.23;37.37
53246;BME280;39569;51.090;-1.786;2023-05-19T08:03:28;102012.31;;;27.28;38.02
53246;BME280;39569;51.090;-1.786;2023-05-19T08:05:56;102020.94;;;27.53;37.43
53246;BME280;39569;51.090;-1.786;2023-05-19T08:08:22;102009.88;;;27.91;36.20
53246;BME280;39569;51.090;-1.786;2023-05-19T08:10:49;102009.13;;;27.95;37.10
53246;BME280;39569;51.090;-1.786;2023-05-19T08:13:17;102018.94;;;27.91;37.13
53246;BME280;39569;51.090;-1.786;2023-05-19T08:15:44;102013.22;;;28.20;36.08
53246;BME280;39569;51.090;-1.786;2023-05-19T08:18:11;102011.22;;;28.68;36.06
53246;BME280;39569;51.090;-1.786;2023-05-19T08:20:39;102013.28;;;29.25;35.75
53246;BME280;39569;51.090;-1.786;2023-05-19T08:23:06;102020.72;;;29.24;35.93
53246;BME280;39569;51.090;-1.786;2023-05-19T08:25:32;102026.03;;;28.99;34.79
53246;BME280;39569;51.090;-1.786;2023-05-19T08:27:59;102013.94;;;29.47;35.57
53246;BME280;39569;51.090;-1.786;2023-05-19T08:30:26;102012.34;;;30.38;32.57
53246;BME280;39569;51.090;-1.786;2023-05-19T08:32:52;102004.03;;;30.68;33.77
53246;BME280;39569;51.090;-1.786;2023-05-19T08:35:19;102008.44;;;30.44;32.83
53246;BME280;39569;51.090;-1.786;2023-05-19T08:37:47;102010.00;;;29.94;33.81
53246;BME280;39569;51.090;-1.786;2023-05-19T08:40:16;102007.63;;;30.78;32.13
53246;BME280;39569;51.090;-1.786;2023-05-19T08:42:43;102004.03;;;30.98;32.47
53246;BME280;39569;51.090;-1.786;2023-05-19T08:45:10;102003.47;;;30.66;33.14
53246;BME280;39569;51.090;-1.786;2023-05-19T08:47:37;102004.31;;;30.76;32.43
53246;BME280;39569;51.090;-1.786;2023-05-19T08:50:06;102006.19;;;30.00;32.69
53246;BME280;39569;51.090;-1.786;2023-05-19T08:52:41;102009.28;;;30.49;33.06
53246;BME280;39569;51.090;-1.786;2023-05-19T08:55:17;102012.06;;;30.39;33.47
53246;BME280;39569;51.090;-1.786;2023-05-19T08:57:50;102016.50;;;29.63;34.53
53246;BME280;39569;51.090;-1.786;2023-05-19T09:00:18;102011.41;;;30.07;33.93
53246;BME280;39569;51.090;-1.786;2023-05-19T09:02:46;102019.81;;;29.65;35.13
53246;BME280;39569;51.090;-1.786;2023-05-19T09:05:15;102014.16;;;29.30;35.00
53246;BME280;39569;51.090;-1.786;2023-05-19T09:07:42;102007.63;;;29.51;35.27
53246;BME280;39569;51.090;-1.786;2023-05-19T09:10:09;101999.13;;;29.53;34.32
53246;BME280;39569;51.090;-1.786;2023-05-19T09:12:40;102002.25;;;29.81;33.10
53246;BME280;39569;51.090;-1.786;2023-05-19T09:15:10;102009.44;;;29.31;35.01
53246;BME280;39569;51.090;-1.786;2023-05-19T09:17:37;102003.22;;;29.55;34.66
53246;BME280;39569;51.090;-1.786;2023-05-19T09:20:05;101995.81;;;29.56;33.98
53246;BME280;39569;51.090;-1.786;2023-05-19T09:22:39;101995.75;;;29.41;35.42
53246;BME280;39569;51.090;-1.786;2023-05-19T09:25:16;101979.69;;;29.89;34.66
53246;BME280;39569;51.090;-1.786;2023-05-19T09:27:45;101977.19;;;29.83;34.36
53246;BME280;39569;51.090;-1.786;2023-05-19T09:30:13;101979.56;;;29.64;34.20
53246;BME280;39569;51.090;-1.786;2023-05-19T09:32:40;101971.16;;;30.01;32.98
53246;BME280;39569;51.090;-1.786;2023-05-19T09:35:07;101972.28;;;30.10;33.78
53246;BME280;39569;51.090;-1.786;2023-05-19T09:37:37;101968.16;;;30.18;33.52
53246;BME280;39569;51.090;-1.786;2023-05-19T09:40:06;101973.94;;;30.11;33.86
53246;BME280;39569;51.090;-1.786;2023-05-19T09:42:36;101975.03;;;30.05;34.20
53246;BME280;39569;51.090;-1.786;2023-05-19T09:45:05;101971.47;;;30.10;34.22
53246;BME280;39569;51.090;-1.786;2023-05-19T09:47:33;101961.41;;;29.68;33.89
53246;BME280;39569;51.090;-1.786;2023-05-19T09:50:01;101967.38;;;30.32;34.23
53246;BME280;39569;51.090;-1.786;2023-05-19T09:52:28;101964.03;;;30.75;32.65
53246;BME280;39569;51.090;-1.786;2023-05-19T09:54:55;101964.44;;;31.43;33.18
53246;BME280;39569;51.090;-1.786;2023-05-19T09:57:24;101970.28;;;31.95;32.72
53246;BME280;39569;51.090;-1.786;2023-05-19T09:59:53;101970.59;;;32.61;29.79
53246;BME280;39569;51.090;-1.786;2023-05-19T10:02:23;101971.84;;;32.45;30.98
53246;BME280;39569;51.090;-1.786;2023-05-19T10:04:51;101971.47;;;32.85;30.11
53246;BME280;39569;51.090;-1.786;2023-05-19T10:07:19;101964.84;;;32.81;29.91
53246;BME280;39569;51.090;-1.786;2023-05-19T10:09:49;101978.47;;;33.30;29.59
53246;BME280;39569;51.090;-1.786;2023-05-19T10:12:17;101963.53;;;33.49;28.29
53246;BME280;39569;51.090;-1.786;2023-05-19T10:14:44;101968.69;;;33.80;27.74
53246;BME280;39569;51.090;-1.786;2023-05-19T10:17:11;101971.81;;;33.54;29.70
53246;BME280;39569;51.090;-1.786;2023-05-19T10:19:40;101973.34;;;34.21;27.95
53246;BME280;39569;51.090;-1.786;2023-05-19T10:22:09;101972.47;;;34.39;28.46
53246;BME280;39569;51.090;-1.786;2023-05-19T10:24:35;101964.66;;;34.74;26.18
53246;BME280;39569;51.090;-1.786;2023-05-19T10:27:06;101965.03;;;34.53;26.57
53246;BME280;39569;51.090;-1.786;2023-05-19T10:29:37;101968.50;;;34.45;26.69
53246;BME280;39569;51.090;-1.786;2023-05-19T10:32:09;101961.47;;;34.66;27.23
53246;BME280;39569;51.090;-1.786;2023-05-19T10:34:59;101963.91;;;34.04;27.44
53246;BME280;39569;51.090;-1.786;2023-05-19T10:37:38;101966.50;;;33.95;26.98
53246;BME280;39569;51.090;-1.786;2023-05-19T10:40:11;101959.97;;;34.23;27.87
53246;BME280;39569;51.090;-1.786;2023-05-19T10:42:52;101953.88;;;33.00;28.36
53246;BME280;39569;51.090;-1.786;2023-05-19T10:45:27;101956.78;;;33.13;27.73
53246;BME280;39569;51.090;-1.786;2023-05-19T10:47:56;101950.88;;;33.43;27.62
53246;BME280;39569;51.090;-1.786;2023-05-19T10:50:24;101949.06;;;34.45;28.85
53246;BME280;39569;51.090;-1.786;2023-05-19T10:52:52;101942.50;;;33.48;28.08
53246;BME280;39569;51.090;-1.786;2023-05-19T10:55:44;101942.47;;;34.09;26.55
53246;BME280;39569;51.090;-1.786;2023-05-19T10:58:12;101937.16;;;34.45;30.34
53246;BME280;39569;51.090;-1.786;2023-05-19T11:00:39;101933.34;;;35.27;28.19
53246;BME280;39569;51.090;-1.786;2023-05-19T11:03:12;101924.34;;;34.49;27.02
53246;BME280;39569;51.090;-1.786;2023-05-19T11:05:41;101929.00;;;35.21;25.96
53246;BME280;39569;51.090;-1.786;2023-05-19T11:08:10;101917.59;;;34.96;26.99
53246;BME280;39569;51.090;-1.786;2023-05-19T11:10:37;101916.44;;;35.37;28.02
53246;BME280;39569;51.090;-1.786;2023-05-19T11:13:04;101919.75;;;35.12;27.86
53246;BME280;39569;51.090;-1.786;2023-05-19T11:15:34;101919.00;;;34.02;27.11
53246;BME280;39569;51.090;-1.786;2023-05-19T11:18:01;101919.28;;;33.63;28.03
53246;BME280;39569;51.090;-1.786;2023-05-19T11:20:28;101912.31;;;33.84;30.48
53246;BME280;39569;51.090;-1.786;2023-05-19T11:23:08;101910.81;;;35.02;26.90
53246;BME280;39569;51.090;-1.786;2023-05-19T11:25:42;101905.34;;;35.37;27.65
53246;BME280;39569;51.090;-1.786;2023-05-19T11:28:10;101901.59;;;34.60;26.56
53246;BME280;39569;51.090;-1.786;2023-05-19T11:30:40;101904.38;;;33.96;27.81
53246;BME280;39569;51.090;-1.786;2023-05-19T11:33:07;101903.47;;;33.03;27.82
53246;BME280;39569;51.090;-1.786;2023-05-19T11:35:34;101912.63;;;32.69;28.19
53246;BME280;39569;51.090;-1.786;2023-05-19T11:38:02;101902.88;;;32.20;29.29
53246;BME280;39569;51.090;-1.786;2023-05-19T11:40:31;101899.03;;;31.23;30.68
53246;BME280;39569;51.090;-1.786;2023-05-19T11:42:58;101905.44;;;31.09;30.83
53246;BME280;39569;51.090;-1.786;2023-05-19T11:45:26;101897.53;;;30.87;31.53
53246;BME280;39569;51.090;-1.786;2023-05-19T11:47:54;101907.53;;;30.38;32.88
53246;BME280;39569;51.090;-1.786;2023-05-19T11:50:21;101901.16;;;30.47;32.07
53246;BME280;39569;51.090;-1.786;2023-05-19T11:52:49;101893.13;;;30.61;32.84
53246;BME280;39569;51.090;-1.786;2023-05-19T11:55:16;101895.91;;;30.56;32.26
53246;BME280;39569;51.090;-1.786;2023-05-19T11:57:55;101889.78;;;30.79;32.82
53246;BME280;39569;51.090;-1.786;2023-05-19T12:00:23;101892.81;;;29.62;33.09
53246;BME280;39569;51.090;-1.786;2023-05-19T12:02:50;101892.88;;;29.82;33.59
53246;BME280;39569;51.090;-1.786;2023-05-19T12:05:18;101890.41;;;30.06;33.31
53246;BME280;39569;51.090;-1.786;2023-05-19T12:07:45;101873.31;;;30.09;32.52
53246;BME280;39569;51.090;-1.786;2023-05-19T12:10:14;101877.47;;;30.31;32.62
53246;BME280;39569;51.090;-1.786;2023-05-19T12:12:41;101880.16;;;30.81;31.89
53246;BME280;39569;51.090;-1.786;2023-05-19T12:15:11;101879.00;;;30.92;31.95
53246;BME280;39569;51.090;-1.786;2023-05-19T12:17:38;101873.50;;;31.51;31.29
53246;BME280;39569;51.090;-1.786;2023-05-19T12:20:05;101878.91;;;32.10;29.75
53246;BME280;39569;51.090;-1.786;2023-05-19T12:22:32;101877.13;;;32.24;28.59
53246;BME280;39569;51.090;-1.786;2023-05-19T12:25:00;101870.81;;;32.19;29.28
53246;BME280;39569;51.090;-1.786;2023-05-19T12:27:29;101875.91;;;32.88;29.19
53246;BME280;39569;51.090;-1.786;2023-05-19T12:29:55;101872.63;;;33.09;29.86
53246;BME280;39569;51.090;-1.786;2023-05-19T12:32:24;101878.97;;;32.62;28.41
53246;BME280;39569;51.090;-1.786;2023-05-19T12:34:52;101867.53;;;31.78;28.77
53246;BME280;39569;51.090;-1.786;2023-05-19T12:37:18;101868.75;;;31.62;30.22
53246;BME280;39569;51.090;-1.786;2023-05-19T12:39:47;101859.19;;;31.44;31.14
53246;BME280;39569;51.090;-1.786;2023-05-19T12:42:15;101861.28;;;31.09;30.42
53246;BME280;39569;51.090;-1.786;2023-05-19T12:44:43;101861.06;;;30.90;30.75
53246;BME280;39569;51.090;-1.786;2023-05-19T12:47:11;101858.34;;;30.75;31.53
53246;BME280;39569;51.090;-1.786;2023-05-19T12:49:53;101868.34;;;30.51;32.25